Time;durP1;ratioP1;P1;durP2;ratioP2;P2;SDS_P1;SDS_P2;PMS_P1;PMS_P2;Temp;Humidity;BMP_temperature;BMP_pressure;BME280_temperature;BME280_humidity;BME280_pressure;Samples;Min_cycle;Max_cycle;Signal;HPM_P1;HPM_P2
2021/12/20 07:26:04;;;;;;;21.60;16.60;;;;;;;-0.61;100.00;96867.96;1871142;76;28048;-62
2021/12/20 07:28:31;;;;;;;16.82;10.70;;;;;;;-0.63;100.00;96878.70;1827587;78;20966;-66
2021/12/20 07:30:58;;;;;;;8.88;6.22;;;;;;;-0.56;100.00;96877.20;1826961;77;21028;-64
2021/12/20 07:33:25;;;;;;;6.20;5.22;;;;;;;-0.50;100.00;96896.76;1763299;80;20863;-66
2021/12/20 07:35:52;;;;;;;12.68;5.28;;;;;;;-0.43;100.00;96881.58;1761517;80;20985;-61
2021/12/20 07:38:19;;;;;;;9.15;6.25;;;;;;;-0.36;100.00;96895.84;1791569;79;21298;-64
2021/12/20 07:40:49;;;;;;;7.47;6.10;;;;;;;-0.33;100.00;96897.45;1803638;79;20903;-63
2021/12/20 07:43:17;;;;;;;8.60;6.08;;;;;;;-0.28;100.00;96892.24;1798220;78;21121;-59
2021/12/20 07:45:47;;;;;;;8.05;5.90;;;;;;;-0.24;100.00;96893.36;1806553;79;20890;-61
2021/12/20 07:48:31;;;;;;;8.30;5.80;;;;;;;-0.18;100.00;96891.03;1786171;78;20916;-63
2021/12/20 07:51:01;;;;;;;95.75;12.37;;;;;;;-0.13;100.00;96891.61;1799965;79;20887;-63
2021/12/20 07:53:29;;;;;;;8.68;8.28;;;;;;;-0.11;100.00;96902.16;1761432;79;21038;-63
2021/12/20 07:55:55;;;;;;;7.05;5.53;;;;;;;-0.08;99.96;96893.77;1782039;79;21249;-59
2021/12/20 07:58:23;;;;;;;6.08;5.05;;;;;;;-0.02;99.73;96892.77;1780093;79;20950;-60
2021/12/20 08:00:50;;;;;;;106.87;26.60;;;;;;;0.03;99.69;96897.28;1780943;79;21024;-63
2021/12/20 08:03:20;;;;;;;67.87;11.88;;;;;;;0.06;99.29;96892.84;1775450;79;20944;-59
2021/12/20 08:05:47;;;;;;;17.12;5.72;;;;;;;0.08;98.95;96895.22;1779443;79;21418;-61
2021/12/20 08:08:14;;;;;;;5.97;5.03;;;;;;;0.07;98.59;96902.34;1775434;79;21012;-62
2021/12/20 08:10:42;;;;;;;172.40;21.77;;;;;;;0.09;98.39;96899.45;1779460;80;21098;-62
2021/12/20 08:13:11;;;;;;;85.95;9.18;;;;;;;0.07;98.05;96909.44;1781837;79;20985;-62
2021/12/20 08:15:38;;;;;;;27.45;25.40;;;;;;;0.06;98.33;96909.95;1777651;80;20899;-63
2021/12/20 08:18:06;;;;;;;5.87;5.20;;;;;;;0.09;98.26;96924.47;1773718;80;21454;-60
2021/12/20 08:20:33;;;;;;;8.88;5.47;;;;;;;0.09;97.67;96904.72;1776828;79;21916;-60
2021/12/20 08:23:01;;;;;;;7.53;4.95;;;;;;;0.11;97.34;96906.06;1777741;79;21045;-64
2021/12/20 08:25:28;;;;;;;8.63;5.80;;;;;;;0.13;97.09;96908.43;1770745;80;21015;-61
2021/12/20 08:27:55;;;;;;;1085.58;511.32;;;;;;;0.15;97.22;96911.60;1775335;78;20907;-62
2021/12/20 08:30:22;;;;;;;37.28;8.95;;;;;;;0.18;96.87;96907.96;1771975;78;20939;-65
2021/12/20 08:32:53;;;;;;;6.70;5.83;;;;;;;0.19;96.71;96912.17;1746850;81;21127;-59
2021/12/20 08:35:23;;;;;;;148.13;22.58;;;;;;;0.19;96.47;96914.80;1822437;77;20994;-60
2021/12/20 08:37:53;;;;;;;8.33;5.37;;;;;;;0.16;96.68;96901.36;1810644;77;21037;-62
2021/12/20 08:40:18;;;;;;;6.30;4.95;;;;;;;0.19;97.02;96910.08;1814256;78;20963;-59
2021/12/20 08:43:03;;;;;;;5.47;4.60;;;;;;;0.25;97.25;96916.97;1819336;78;20963;-64
2021/12/20 08:45:29;;;;;;;7.80;4.72;;;;;;;0.29;96.71;96909.62;1785076;80;21159;-62
2021/12/20 08:47:56;;;;;;;7.33;5.42;;;;;;;0.29;96.40;96910.15;1785512;80;20907;-66
2021/12/20 08:50:23;;;;;;;5.85;4.70;;;;;;;0.31;96.73;96923.34;1785448;80;21430;-66
2021/12/20 08:52:52;;;;;;;7.30;4.42;;;;;;;0.35;96.65;96917.06;1784608;80;21445;-60
2021/12/20 08:55:38;;;;;;;7.42;4.37;;;;;;;0.37;96.13;96922.88;1784939;80;20923;-58
2021/12/20 08:58:05;;;;;;;7.70;5.08;;;;;;;0.36;95.46;96908.90;1784538;80;22459;-62
2021/12/20 09:00:33;;;;;;;19.70;14.28;;;;;;;0.37;95.52;96912.33;1785340;80;20915;-59
2021/12/20 09:03:01;;;;;;;5.12;3.95;;;;;;;0.36;95.41;96914.69;1785521;80;21013;-62
2021/12/20 09:05:29;;;;;;;6.15;4.28;;;;;;;0.39;95.32;96912.88;1788086;80;21026;-64
2021/12/20 09:08:16;;;;;;;4.83;4.30;;;;;;;0.40;94.87;96919.74;1785515;80;20923;-62
2021/12/20 09:10:44;;;;;;;5.78;4.35;;;;;;;0.39;94.98;96916.31;1785441;80;20923;-59
2021/12/20 09:13:12;;;;;;;31.27;5.17;;;;;;;0.45;94.96;96923.19;1785310;80;21442;-57
2021/12/20 09:15:39;;;;;;;6.65;5.00;;;;;;;0.48;94.64;96923.22;1785411;80;20891;-58
2021/12/20 09:18:06;;;;;;;7.03;5.87;;;;;;;0.49;94.65;96907.69;1775458;80;20902;-59
2021/12/20 09:20:33;;;;;;;7.62;6.30;;;;;;;0.50;94.32;96913.22;1793163;79;20970;-61
2021/12/20 09:23:10;;;;;;;6.35;5.12;;;;;;;0.55;94.03;96917.21;1797368;79;21200;-64
2021/12/20 09:25:33;;;;;;;7.28;5.50;;;;;;;0.57;93.72;96914.59;1786176;79;20994;-63
2021/12/20 09:28:08;;;;;;;5.83;4.37;;;;;;;0.59;93.15;96920.92;1789014;79;20962;-62
2021/12/20 09:30:34;;;;;;;6.28;4.50;;;;;;;0.59;93.12;96920.41;1769648;80;20975;-66
2021/12/20 09:33:04;;;;;;;6.40;4.72;;;;;;;0.60;92.74;96923.84;1741276;82;20999;-63
2021/12/20 09:35:32;;;;;;;4.42;3.67;;;;;;;0.62;92.75;96915.16;1749431;81;21109;-57
2021/12/20 09:37:59;;;;;;;5.15;3.98;;;;;;;0.68;92.62;96919.44;1737542;80;20932;-63
2021/12/20 09:40:33;;;;;;;6.70;4.35;;;;;;;0.66;92.16;96918.86;1750791;81;20952;-63
2021/12/20 09:43:03;;;;;;;5.58;4.47;;;;;;;0.64;92.27;96923.59;1747582;81;20917;-58
2021/12/20 09:45:30;;;;;;;118.50;65.60;;;;;;;0.64;92.33;96925.72;1773250;80;20962;-57
2021/12/20 09:47:57;;;;;;;5.33;4.10;;;;;;;0.66;92.32;96938.63;1771360;80;21837;-60
2021/12/20 09:50:23;;;;;;;5.83;4.50;;;;;;;0.65;92.18;96923.88;1771290;79;21102;-58
2021/12/20 09:52:50;;;;;;;6.80;4.72;;;;;;;0.65;92.05;96927.31;1813670;77;21010;-57
2021/12/20 09:55:16;;;;;;;5.83;4.62;;;;;;;0.67;91.90;96939.72;1815426;77;20979;-63
2021/12/20 09:57:44;;;;;;;12.23;5.28;;;;;;;0.73;91.40;96933.94;1814514;77;21039;-60
2021/12/20 10:00:14;;;;;;;6.10;4.12;;;;;;;0.75;91.24;96938.45;1784126;79;21115;-58
2021/12/20 10:02:46;;;;;;;5.05;3.98;;;;;;;0.78;90.59;96928.70;1786281;79;20955;-59
2021/12/20 10:05:14;;;;;;;7.20;5.03;;;;;;;0.76;90.07;96928.17;1786948;79;20888;-60
2021/12/20 10:07:41;;;;;;;6.80;4.30;;;;;;;0.70;90.26;96930.52;1788278;79;20971;-57
2021/12/20 10:10:10;;;;;;;6.35;4.72;;;;;;;0.68;90.10;96935.24;1788555;79;20960;-58
2021/12/20 10:12:48;;;;;;;4.47;3.95;;;;;;;0.67;90.33;96930.49;1788029;79;20857;-64
2021/12/20 10:15:15;;;;;;;4.80;4.25;;;;;;;0.71;90.25;96937.35;1776251;79;20864;-63
2021/12/20 10:17:59;;;;;;;6.65;5.20;;;;;;;0.73;89.72;96940.52;1789378;79;20956;-60
2021/12/20 10:20:29;;;;;;;8.10;5.40;;;;;;;0.75;90.10;96938.45;1786821;79;20865;-63
2021/12/20 10:23:19;;;;;;;5.25;3.55;;;;;;;0.82;90.08;96933.77;1783167;79;20924;-59
2021/12/20 10:28:24;;;;;;;4.95;3.20;;;;;;;0.97;89.14;96923.30;1787779;79;21051;-60
2021/12/20 10:30:58;;;;;;;5.53;4.12;;;;;;;0.97;88.62;96936.48;1784792;79;20931;-58
2021/12/20 10:33:25;;;;;;;5.42;3.87;;;;;;;0.99;88.77;96939.66;1789158;79;20988;-59
2021/12/20 10:35:55;;;;;;;5.65;3.83;;;;;;;0.98;88.35;96924.09;1777787;79;21050;-62
2021/12/20 10:38:33;;;;;;;4.47;3.27;;;;;;;0.93;88.29;96937.24;1769310;79;21745;-59
2021/12/20 10:41:28;;;;;;;5.42;3.40;;;;;;;0.88;88.30;96932.73;1766102;80;21078;-60
2021/12/20 10:43:58;;;;;;;5.58;3.83;;;;;;;0.83;88.40;96932.70;1780672;80;20999;-60
2021/12/20 10:46:31;;;;;;;6.58;4.30;;;;;;;0.80;88.53;96931.88;1757038;80;20917;-60
2021/12/20 10:49:18;;;;;;;4.35;3.10;;;;;;;0.77;88.69;96930.28;1765908;81;21352;-57
2021/12/20 10:51:49;;;;;;;5.45;3.42;;;;;;;0.77;88.67;96934.23;1766102;81;21133;-61
2021/12/20 10:54:21;;;;;;;4.53;2.90;;;;;;;0.81;88.79;96937.44;1765716;80;20818;-64
2021/12/20 10:57:01;;;;;;;3.50;2.70;;;;;;;0.82;88.52;96939.03;1764991;79;22129;-61
2021/12/20 10:59:30;;;;;;;3.70;3.00;;;;;;;0.80;88.44;96935.83;1761336;81;20947;-59
2021/12/20 11:04:27;;;;;;;3.62;2.60;;;;;;;0.87;88.57;96941.71;1728550;81;21133;-62
2021/12/20 11:09:36;;;;;;;2.65;2.05;;;;;;;0.94;88.40;96931.73;1762222;81;20862;-63
2021/12/20 11:12:25;;;;;;;3.40;2.55;;;;;;;0.92;88.02;96931.17;1759148;81;20953;-61
2021/12/20 11:14:56;;;;;;;4.50;2.60;;;;;;;0.85;88.11;96933.23;1762845;81;21040;-59
2021/12/20 11:17:24;;;;;;;2.58;1.80;;;;;;;0.86;88.43;96946.70;1760841;80;20991;-63
2021/12/20 11:19:53;;;;;;;2.80;2.10;;;;;;;0.85;88.24;96947.73;1763073;81;21011;-63
2021/12/20 11:22:26;;;;;;;2.98;1.90;;;;;;;0.86;88.15;96951.97;1762790;81;20869;-61
2021/12/20 11:25:07;;;;;;;2.70;2.10;;;;;;;0.87;88.12;96960.16;1756918;80;20929;-62
2021/12/20 11:27:42;;;;;;;2.47;1.87;;;;;;;0.92;88.04;96960.17;1797303;79;21069;-62
2021/12/20 11:30:18;;;;;;;2.50;2.12;;;;;;;1.00;87.46;96954.44;1788770;79;21848;-60
2021/12/20 11:32:47;;;;;;;3.47;1.77;;;;;;;1.06;87.31;96956.05;1800575;79;20863;-61
2021/12/20 11:35:15;;;;;;;2.12;1.50;;;;;;;1.10;86.80;96959.78;1800573;79;20935;-60
2021/12/20 11:37:42;;;;;;;2.12;1.70;;;;;;;1.12;86.14;96955.05;1801862;79;20880;-60
2021/12/20 11:40:10;;;;;;;1.98;1.50;;;;;;;1.19;85.68;96956.93;1802190;79;20873;-59
2021/12/20 11:42:37;;;;;;;3.95;2.50;;;;;;;1.17;85.69;96968.27;1771846;80;21193;-63
2021/12/20 11:45:07;;;;;;;2.87;2.10;;;;;;;1.23;85.83;96970.39;1796755;78;21481;-66
2021/12/20 11:48:00;;;;;;;3.92;2.17;;;;;;;1.20;85.15;96967.73;1803714;79;20959;-63
2021/12/20 11:50:33;;;;;;;2.60;1.90;;;;;;;1.13;84.79;96969.80;1800853;79;20923;-63
2021/12/20 11:53:14;;;;;;;3.30;2.12;;;;;;;1.07;84.66;96959.48;1798261;79;20910;-61
2021/12/20 11:55:53;;;;;;;4.47;3.15;;;;;;;1.01;84.57;96965.79;1798714;79;21089;-61
2021/12/20 11:58:25;;;;;;;3.87;2.40;;;;;;;0.96;84.45;96970.50;1801463;79;20995;-65
2021/12/20 12:00:54;;;;;;;5.65;2.72;;;;;;;0.87;84.35;96972.03;1799837;79;20966;-59
2021/12/20 12:03:26;;;;;;;4.30;2.90;;;;;;;0.85;84.46;96973.33;1801631;79;21006;-62
2021/12/20 12:05:57;;;;;;;4.20;3.05;;;;;;;0.85;84.57;96974.09;1802815;79;20924;-61
2021/12/20 12:08:40;;;;;;;4.72;3.08;;;;;;;0.82;84.55;96972.50;1791768;78;21095;-62
2021/12/20 12:11:15;;;;;;;4.33;2.27;;;;;;;0.79;83.34;96973.80;1796277;79;20884;-60
2021/12/20 12:14:05;;;;;;;2.58;1.75;;;;;;;0.76;83.06;96970.86;1799050;79;26362;-64
2021/12/20 12:17:05;;;;;;;1.85;1.20;;;;;;;0.70;82.87;96975.31;1795382;79;20951;-62
2021/12/20 12:19:50;;;;;;;2.42;1.55;;;;;;;0.55;81.93;96973.86;1784390;79;20944;-62
2021/12/20 12:22:42;;;;;;;2.58;1.80;;;;;;;0.42;82.43;96973.77;1796965;79;21782;-62
2021/12/20 12:25:13;;;;;;;3.47;1.82;;;;;;;0.42;82.99;96974.28;1798154;79;20865;-61
2021/12/20 12:27:43;;;;;;;2.60;1.85;;;;;;;0.45;83.43;96975.09;1787171;79;20922;-61
2021/12/20 12:30:23;;;;;;;2.58;1.62;;;;;;;0.45;83.69;96976.40;1785236;79;21137;-68
2021/12/20 12:32:57;;;;;;;4.30;2.30;;;;;;;0.45;84.10;96977.72;1792083;79;20967;-62
2021/12/20 12:35:47;;;;;;;5.22;2.80;;;;;;;0.46;84.51;96985.91;1790314;79;21155;-60
2021/12/20 12:38:33;;;;;;;2.87;2.00;;;;;;;0.52;84.79;96973.84;1762066;80;20974;-61
2021/12/20 12:41:15;;;;;;;2.80;1.90;;;;;;;0.61;84.73;96984.73;1738628;82;21442;-63
2021/12/20 12:44:01;;;;;;;2.95;2.02;;;;;;;0.64;84.64;96978.94;1753493;81;20986;-63
2021/12/20 12:46:41;;;;;;;3.83;2.65;;;;;;;0.68;84.47;96978.19;1750763;81;21427;-62
2021/12/20 12:49:30;;;;;;;2.70;1.80;;;;;;;0.72;84.67;96984.28;1753092;81;21081;-59
2021/12/20 12:52:08;;;;;;;4.30;2.35;;;;;;;0.76;84.77;96990.11;1792681;79;20885;-64
2021/12/20 12:54:41;;;;;;;3.75;1.80;;;;;;;0.77;84.44;96989.59;1791499;79;20885;-62
2021/12/20 12:57:15;;;;;;;3.65;2.27;;;;;;;0.75;84.73;96991.17;1788284;79;20881;-60
2021/12/20 12:59:54;;;;;;;2.92;1.80;;;;;;;0.73;84.23;97001.15;1787450;79;20974;-58
2021/12/20 13:02:31;;;;;;;2.58;1.50;;;;;;;0.73;84.32;96999.83;1792722;79;21097;-63
2021/12/20 13:05:14;;;;;;;2.50;1.42;;;;;;;0.71;84.39;97001.16;1783442;79;20924;-60
2021/12/20 13:07:49;;;;;;;2.60;2.00;;;;;;;0.67;84.20;97004.80;1787294;79;20927;-62
2021/12/20 13:10:32;;;;;;;2.95;2.12;;;;;;;0.62;84.47;97011.34;1775254;79;20895;-61
2021/12/20 13:13:06;;;;;;;3.77;2.20;;;;;;;0.63;84.40;97003.72;1792659;79;20907;-62
2021/12/20 13:15:55;;;;;;;3.20;2.10;;;;;;;0.61;83.99;97013.72;1789008;79;21098;-59
2021/12/20 13:18:08;;;;;;;3.37;1.82;;;;;;;0.56;84.24;97021.06;1776558;79;21046;-60
2021/12/20 13:20:35;;;;;;;3.08;1.75;;;;;;;0.57;84.10;97013.93;1750852;81;21086;-64
2021/12/20 13:23:12;;;;;;;2.83;1.70;;;;;;;0.54;84.12;97019.17;1772057;80;21146;-60
2021/12/20 13:25:49;;;;;;;3.47;2.20;;;;;;;0.55;84.19;97024.73;1746933;81;20947;-64
2021/12/20 13:32:22;;;;;;;2.98;2.05;;;;;;;0.49;84.06;97031.52;1815861;78;21031;-62
2021/12/20 13:34:49;;;;;;;3.50;2.35;;;;;;;0.37;83.87;97041.41;1818295;78;21426;-62
2021/12/20 13:37:15;;;;;;;2.98;2.15;;;;;;;0.36;83.61;97038.49;1786663;78;20987;-59
2021/12/20 13:39:54;;;;;;;4.12;1.92;;;;;;;0.37;83.88;97049.31;1815249;78;20910;-60
2021/12/20 13:42:20;;;;;;;3.60;1.40;;;;;;;0.38;83.91;97051.69;1814254;78;21098;-62
2021/12/20 13:44:47;;;;;;;2.83;1.90;;;;;;;0.33;83.59;97054.27;1816838;77;21433;-65
2021/12/20 13:47:19;;;;;;;2.52;1.90;;;;;;;0.27;83.61;97054.47;1817175;77;20952;-66
2021/12/20 13:49:45;;;;;;;4.20;1.80;;;;;;;0.22;84.01;97055.21;1817210;77;21018;-66
2021/12/20 14:37:51;;;;;;;4.05;3.20;;;;;;;-1.27;92.28;97114.09;1879433;76;27917;-64
2021/12/20 14:40:42;;;;;;;3.35;2.20;;;;;;;-1.27;92.28;97114.09;1842929;77;20947;-63
2021/12/20 14:43:14;;;;;;;4.15;2.30;;;;;;;-1.24;92.77;97116.77;1841094;77;21196;-61
2021/12/20 14:45:40;;;;;;;6.42;3.58;;;;;;;-1.16;92.95;97117.70;1850916;76;20864;-62
2021/12/20 14:48:18;;;;;;;6.58;3.42;;;;;;;-1.10;92.86;97118.06;1850760;76;20954;-60
2021/12/20 14:50:48;;;;;;;4.75;2.45;;;;;;;-1.05;92.86;97125.52;1844333;77;20978;-59
2021/12/20 14:53:21;;;;;;;8.83;4.10;;;;;;;-0.96;92.84;97125.92;1851903;77;20939;-64
2021/12/20 14:55:48;;;;;;;9.10;5.10;;;;;;;-0.92;92.81;97117.31;1840710;77;21884;-66
2021/12/20 14:58:14;;;;;;;12.28;5.50;;;;;;;-0.84;92.81;97127.96;1854133;77;20880;-61
2021/12/20 15:00:43;;;;;;;12.35;6.12;;;;;;;-0.81;92.71;97134.87;1844072;77;20904;-61
2021/12/20 15:03:10;;;;;;;7.45;4.60;;;;;;;-0.78;92.52;97123.08;1846298;77;20915;-64
2021/12/20 15:05:37;;;;;;;9.10;5.30;;;;;;;-0.78;92.22;97129.66;1841198;77;21442;-59
2021/12/20 15:08:04;;;;;;;5.83;4.00;;;;;;;-0.81;91.87;97137.50;1846564;77;21078;-62
2021/12/20 15:10:31;;;;;;;6.05;4.72;;;;;;;-0.82;91.71;97136.41;1779806;80;22086;-64
2021/12/20 15:12:58;;;;;;;6.72;4.30;;;;;;;-0.83;91.62;97141.41;1801078;79;20883;-65
2021/12/20 15:15:25;;;;;;;6.87;4.03;;;;;;;-0.84;91.16;97139.80;1802194;79;21398;-64
2021/12/20 15:17:52;;;;;;;5.65;4.30;;;;;;;-0.85;90.95;97142.94;1801086;79;21009;-60
2021/12/20 15:20:21;;;;;;;8.00;5.03;;;;;;;-0.85;90.74;97152.14;1800545;79;21044;-64
2021/12/20 15:22:48;;;;;;;7.20;4.50;;;;;;;-0.86;90.52;97148.44;1800552;79;21591;-61
2021/12/20 15:25:15;;;;;;;5.65;4.10;;;;;;;-0.82;90.33;97153.50;1801122;79;21041;-63
2021/12/20 15:27:42;;;;;;;7.42;4.72;;;;;;;-0.81;89.31;97155.10;1801338;79;21005;-61
2021/12/20 15:30:10;;;;;;;5.62;4.05;;;;;;;-0.84;88.91;97162.14;1801475;79;21501;-59
2021/12/20 15:32:37;;;;;;;6.58;4.47;;;;;;;-0.81;88.64;97177.45;1801589;79;21708;-60
2021/12/20 15:35:06;;;;;;;6.75;4.47;;;;;;;-0.79;88.12;97179.33;1801306;79;20927;-62
2021/12/20 15:37:33;;;;;;;4.65;3.30;;;;;;;-0.80;87.59;97185.09;1781650;79;20967;-64
2021/12/20 15:39:59;;;;;;;6.20;3.75;;;;;;;-0.85;86.20;97181.59;1775930;80;21443;-63
2021/12/20 15:42:31;;;;;;;6.12;3.70;;;;;;;-0.92;86.44;97181.73;1776053;80;21428;-61
2021/12/20 15:44:55;;;;;;;4.05;2.65;;;;;;;-0.93;86.42;97174.89;1771393;80;21459;-63
2021/12/20 15:47:21;;;;;;;3.47;2.37;;;;;;;-0.92;85.99;97175.70;1763053;80;20978;-65
2021/12/20 15:49:48;;;;;;;3.92;2.87;;;;;;;-0.92;86.05;97167.80;1754240;81;20907;-65
2021/12/20 15:52:15;;;;;;;7.70;3.50;;;;;;;-0.94;85.13;97175.11;1754358;81;21451;-61
2021/12/20 15:54:42;;;;;;;5.67;3.20;;;;;;;-0.94;85.28;97179.05;1754200;81;20939;-66
2021/12/20 15:57:09;;;;;;;5.95;3.25;;;;;;;-0.93;84.75;97188.55;1758652;80;22243;-65
2021/12/20 15:59:36;;;;;;;6.15;3.20;;;;;;;-0.97;84.25;97195.31;1768025;80;20940;-63
2021/12/20 16:09:54;;;;;;;5.40;2.75;;;;;;;-1.07;82.90;97204.33;1890724;76;28175;-59
2021/12/20 16:12:24;;;;;;;6.20;3.60;;;;;;;-1.20;82.56;97205.94;1861491;77;20864;-64
2021/12/20 16:14:50;;;;;;;7.05;3.92;;;;;;;-1.22;82.48;97214.03;1861600;77;21168;-65
2021/12/20 16:17:19;;;;;;;4.20;2.83;;;;;;;-1.26;82.71;97210.80;1861466;77;20904;-64
2021/12/20 16:19:47;;;;;;;7.08;3.72;;;;;;;-1.29;82.55;97221.25;1861532;77;20990;-62
2021/12/20 16:22:14;;;;;;;5.28;3.77;;;;;;;-1.31;83.03;97225.95;1861673;77;20911;-65
2021/12/20 16:24:42;;;;;;;4.33;3.27;;;;;;;-1.27;83.15;97224.98;1861631;77;20899;-63
2021/12/20 16:27:09;;;;;;;4.67;3.50;;;;;;;-1.27;82.37;97223.67;1861575;77;21116;-60
2021/12/20 16:29:37;;;;;;;5.97;3.27;;;;;;;-1.30;82.48;97234.63;1861580;77;20887;-60
2021/12/20 16:32:06;;;;;;;6.80;2.75;;;;;;;-1.35;80.98;97240.59;1856480;77;20824;-64
2021/12/20 16:34:33;;;;;;;3.72;2.00;;;;;;;-1.40;79.94;97246.55;1861721;77;20848;-62
2021/12/20 16:37:00;;;;;;;2.58;1.95;;;;;;;-1.45;78.63;97254.31;1861573;77;20927;-64
2021/12/20 16:39:31;;;;;;;4.15;1.82;;;;;;;-1.52;78.47;97249.70;1861536;77;21580;-59
2021/12/20 16:41:56;;;;;;;2.83;2.22;;;;;;;-1.53;77.72;97256.52;1852591;77;20890;-59
2021/12/20 16:44:25;;;;;;;3.52;1.77;;;;;;;-1.57;76.64;97267.98;1827817;78;20876;-62
2021/12/20 16:46:57;;;;;;;3.83;2.47;;;;;;;-1.59;75.71;97266.10;1827797;78;20914;-60
2021/12/20 16:49:19;;;;;;;3.77;2.15;;;;;;;-1.69;76.67;97281.63;1759080;81;20964;-58
2021/12/20 16:51:46;;;;;;;3.35;2.20;;;;;;;-1.79;76.71;97280.09;1791608;80;21730;-60
2021/12/20 16:54:13;;;;;;;4.58;2.52;;;;;;;-1.82;76.52;97279.25;1791838;80;20833;-60
2021/12/20 16:56:41;;;;;;;6.83;3.65;;;;;;;-1.86;76.16;97284.66;1791586;80;20931;-61
2021/12/20 16:59:11;;;;;;;4.95;3.67;;;;;;;-1.89;75.98;97289.07;1791526;80;20931;-67
2021/12/20 17:01:41;;;;;;;5.55;2.10;;;;;;;-1.92;75.75;97286.89;1791565;80;20931;-61
2021/12/20 17:06:37;;;;;;;3.45;2.10;;;;;;;-1.92;74.81;97294.77;1791283;80;20967;-62
2021/12/20 17:09:04;;;;;;;3.40;2.00;;;;;;;-1.93;74.29;97291.84;1783896;80;20892;-59
2021/12/20 17:11:32;;;;;;;3.05;1.90;;;;;;;-1.95;73.72;97297.84;1777947;80;20897;-62
2021/12/20 17:13:59;;;;;;;3.10;1.92;;;;;;;-1.99;71.97;97299.83;1777822;80;20912;-65
2021/12/20 17:16:26;;;;;;;3.08;1.95;;;;;;;-2.08;72.06;97308.56;1777941;80;21130;-60
2021/12/20 17:18:53;;;;;;;4.20;2.50;;;;;;;-2.13;71.80;97307.12;1777607;80;20845;-66
2021/12/20 17:21:20;;;;;;;3.80;2.10;;;;;;;-2.18;72.23;97306.49;1777385;80;21442;-59
2021/12/20 17:23:47;;;;;;;2.90;2.10;;;;;;;-2.23;72.61;97313.44;1777172;80;21022;-65
2021/12/20 17:26:14;;;;;;;3.22;2.10;;;;;;;-2.27;72.71;97318.34;1779657;79;21513;-64
2021/12/20 17:28:41;;;;;;;3.72;2.30;;;;;;;-2.27;72.93;97322.78;1789338;79;21117;-58
2021/12/20 17:31:08;;;;;;;4.37;2.10;;;;;;;-2.30;72.95;97331.09;1768589;81;21375;-62
2021/12/20 17:33:36;;;;;;;3.62;2.00;;;;;;;-2.31;73.29;97329.52;1768429;81;20968;-65
2021/12/20 17:36:03;;;;;;;3.75;2.20;;;;;;;-2.35;73.23;97338.33;1768335;81;20901;-60
2021/12/20 17:38:31;;;;;;;4.70;2.20;;;;;;;-2.38;73.62;97351.11;1768589;81;21330;-61
2021/12/20 17:40:57;;;;;;;3.83;2.70;;;;;;;-2.39;74.00;97352.92;1768423;81;21071;-63
